Buckland Airport Buckland US
ICAO: PABL
IATA:
Category: Medium
Scheduled Services:

Elevation: 31 ft
TransAlt. 18000 ft.

Airport Communications:
AWOS 3:135.15
ANCHORAGE APP/DEP:119.2
CTAF:122.9
KOTZEBUE RDO:122.3

PABL Zoom In..

Runways:

(A) RW 11 length 3200 ft width 75 ft
---- / hdg 107

(B) RW 29 length 3200 ft width 75 ft
---- / hdg 287

Location; PABL
Day. 26 / Time. 12.56 Zulu
* Altimeter: 29.77
* Temperature: 02° c. 35.6°f.
* Wind from: 310° Speed 07 kn.
Dewpoint: 01° c.
Visibility: 10 Statute Miles.
Clouds: Overcast 500 ft.

PABL 261256Z AUTO 31007KT 10SM OVC005 02/01 A2977 RMK AO2 SLP084 T00170006 FZRANO


Wind From 310°
Speed 07 kn.

 
 
jpsmedia.com for Web Design SOUNDCLOUD worldairports.se 2018   terms of use